Bow Heron — DYTN — position and weather

sailwx.info

Track history (hours):
 
Tides and Currents Weather Stations Pressure Air Temp Water Temp Dewpoint Dewpoint Depression Visibility Wind Speed Wind Dir Waves Ship Positions

Bow Heron

Last reported at 2015-Aug-27 22:15 UTC. Time now 2015-Sep-04 12:30 UTC.
Position N 31°16' E 032°19'.

Length 174 m; draft 10.8 m.

Type: Ship (hazmat cat B). MMSI: 548779000.

Date/timePositionNaut miles runAvg speedWind from/ knotsBaromVisibWave heightAir tempDewpointWater temp
2015-Aug-27 22:15N 31°16' E 032°19'6 3.7
2015-Aug-27 20:32N 31°22' E 032°18'0 0.0
2015-Aug-27 19:26N 31°22' E 032°18'0 0.0
2015-Aug-27 15:08N 31°22' E 032°18'0 0.0
2015-Aug-27 14:29N 31°22' E 032°18'10411.6
2015-Aug-27 05:32N 32°15' E 030°33'67214.2
2015-Aug-25 06:11N 35°35' E 017°39'1414.5
2015-Aug-25 05:12N 35°39' E 017°23'914.1
2015-Aug-25 04:33N 35°42' E 017°12'1414.1
2015-Aug-25 03:33N 35°46' E 016°55'1414.2
2015-Aug-25 02:33N 35°50' E 016°39'1414.3
2015-Aug-25 01:34N 35°54' E 016°22'1614.3
2015-Aug-25 00:26N 35°59' E 016°03'1314.3
2015-Aug-24 23:33N 36°03' E 015°48'1514.4
2015-Aug-24 22:28N 36°08' E 015°30'1314.3
2015-Aug-24 21:34N 36°11' E 015°14'1414.2
2015-Aug-24 20:34N 36°15' E 014°57'1414.3
2015-Aug-24 19:34N 36°20' E 014°41'1414.0
2015-Aug-24 18:33N 36°24' E 014°24'1413.8
2015-Aug-24 17:34N 36°28' E 014°08'1413.9
2015-Aug-24 16:33N 36°32' E 013°51'1414.2
2015-Aug-24 15:33N 36°36' E 013°34'1414.4
2015-Aug-24 14:33N 36°41' E 013°17'1414.4
2015-Aug-24 13:33N 36°45' E 012°60'1414.5
2015-Aug-24 12:33N 36°50' E 012°43'1515.0
2015-Aug-24 11:33N 36°54' E 012°25'1414.0
2015-Aug-24 10:33N 36°58' E 012°08'1413.6
2015-Aug-24 09:33N 37°03' E 011°52'1413.6
2015-Aug-24 08:33N 37°10' E 011°37'1413.8
2015-Aug-24 07:33N 37°17' E 011°22'1413.8
2015-Aug-24 06:32N 37°23' E 011°07'5114.7
2015-Aug-24 03:04N 37°34' E 010°04'815.2
2015-Aug-24 02:32N 37°32' E 009°54'1615.0
2015-Aug-24 01:28N 37°27' E 009°35'16513.9
2015-Aug-23 13:33N 37°21' E 006°07'1413.4
2015-Aug-23 12:29N 37°21' E 005°49'1413.8
2015-Aug-23 11:30N 37°21' E 005°32'5714.1
2015-Aug-23 07:29N 37°20' E 004°20'4113.8
2015-Aug-23 04:30N 37°15' E 003°29'7014.0
2015-Aug-22 23:28N 37°00' E 002°03'1213.5
2015-Aug-22 22:33N 36°58' E 001°48'2813.4
2015-Aug-22 20:28N 36°52' E 001°13'1314.3
2015-Aug-22 19:32N 36°49' E 000°57'3115.0
2015-Aug-22 17:27N 36°43' E 000°19'468 9.8
2015-Aug-20 17:32N 36°02' W 009°20'22813.2
2015-Aug-20 00:20N 36°43' W 013°58'1113.0
2015-Aug-19 23:28N 36°46' W 014°11'2613.4
2015-Aug-19 21:32N 36°55' W 014°42'45313.7
2015-Aug-18 12:29N 38°54' W 023°55'9613.9
2015-Aug-18 05:33N 39°16' W 025°56'4513.9
2015-Aug-18 02:20N 39°26' W 026°52'2913.6
2015-Aug-18 00:12N 39°33' W 027°29'913.7
2015-Aug-17 23:33N 39°35' W 027°40'1414.0
2015-Aug-17 22:33N 39°38' W 027°58'  
Track history (hours):
 
Tides and Currents Weather Stations Pressure Air Temp Water Temp Dewpoint Dewpoint Depression Visibility Wind Speed Wind Dir Waves Ship Positions

Bow Heron

Last reported at 2015-Aug-27 22:15 UTC. Time now 2015-Sep-04 12:30 UTC.
Position N 31°16' E 032°19'.

Length 174 m; draft 10.8 m.

Type: Ship (hazmat cat B). MMSI: 548779000.

Date/timePositionNaut miles runAvg speedWind from/ knotsBaromVisibWave heightAir tempDewpointWater temp
2015-Aug-27 22:15N 31°16' E 032°19'6 3.7
2015-Aug-27 20:32N 31°22' E 032°18'0 0.0
2015-Aug-27 19:26N 31°22' E 032°18'0 0.0
2015-Aug-27 15:08N 31°22' E 032°18'0 0.0
2015-Aug-27 14:29N 31°22' E 032°18'10411.6
2015-Aug-27 05:32N 32°15' E 030°33'67214.2
2015-Aug-25 06:11N 35°35' E 017°39'1414.5
2015-Aug-25 05:12N 35°39' E 017°23'914.1
2015-Aug-25 04:33N 35°42' E 017°12'1414.1
2015-Aug-25 03:33N 35°46' E 016°55'1414.2
2015-Aug-25 02:33N 35°50' E 016°39'1414.3
2015-Aug-25 01:34N 35°54' E 016°22'1614.3
2015-Aug-25 00:26N 35°59' E 016°03'1314.3
2015-Aug-24 23:33N 36°03' E 015°48'1514.4
2015-Aug-24 22:28N 36°08' E 015°30'1314.3
2015-Aug-24 21:34N 36°11' E 015°14'1414.2
2015-Aug-24 20:34N 36°15' E 014°57'1414.3
2015-Aug-24 19:34N 36°20' E 014°41'1414.0
2015-Aug-24 18:33N 36°24' E 014°24'1413.8
2015-Aug-24 17:34N 36°28' E 014°08'1413.9
2015-Aug-24 16:33N 36°32' E 013°51'1414.2
2015-Aug-24 15:33N 36°36' E 013°34'1414.4
2015-Aug-24 14:33N 36°41' E 013°17'1414.4
2015-Aug-24 13:33N 36°45' E 012°60'1414.5
2015-Aug-24 12:33N 36°50' E 012°43'1515.0
2015-Aug-24 11:33N 36°54' E 012°25'1414.0
2015-Aug-24 10:33N 36°58' E 012°08'1413.6
2015-Aug-24 09:33N 37°03' E 011°52'1413.6
2015-Aug-24 08:33N 37°10' E 011°37'1413.8
2015-Aug-24 07:33N 37°17' E 011°22'1413.8
2015-Aug-24 06:32N 37°23' E 011°07'5114.7
2015-Aug-24 03:04N 37°34' E 010°04'815.2
2015-Aug-24 02:32N 37°32' E 009°54'1615.0
2015-Aug-24 01:28N 37°27' E 009°35'16513.9
2015-Aug-23 13:33N 37°21' E 006°07'1413.4
2015-Aug-23 12:29N 37°21' E 005°49'1413.8
2015-Aug-23 11:30N 37°21' E 005°32'5714.1
2015-Aug-23 07:29N 37°20' E 004°20'4113.8
2015-Aug-23 04:30N 37°15' E 003°29'7014.0
2015-Aug-22 23:28N 37°00' E 002°03'1213.5
2015-Aug-22 22:33N 36°58' E 001°48'2813.4
2015-Aug-22 20:28N 36°52' E 001°13'1314.3
2015-Aug-22 19:32N 36°49' E 000°57'3115.0
2015-Aug-22 17:27N 36°43' E 000°19'468 9.8
2015-Aug-20 17:32N 36°02' W 009°20'22813.2
2015-Aug-20 00:20N 36°43' W 013°58'1113.0
2015-Aug-19 23:28N 36°46' W 014°11'2613.4
2015-Aug-19 21:32N 36°55' W 014°42'45313.7
2015-Aug-18 12:29N 38°54' W 023°55'9613.9
2015-Aug-18 05:33N 39°16' W 025°56'4513.9
2015-Aug-18 02:20N 39°26' W 026°52'2913.6
2015-Aug-18 00:12N 39°33' W 027°29'913.7
2015-Aug-17 23:33N 39°35' W 027°40'1414.0
2015-Aug-17 22:33N 39°38' W 027°58'  

Dump ship's entire track history